Kezdőlap
METAR-TAF:

METAR-TAF

Repülőterek :

Havre-Saint-Pierre, Québec, Kanada

földrajzi szélesség: 50-17N, földrajzi hosszúság: 063-37W, magasság: 33 m

Jelenlegi meteorológiai megfigyelések

A jelentés 54 perccel ezelõtt készült, 22:00 UTC
Nyugati szél 15 kt széllökések: 20 kt
Hőmérséklet 11°C
Páratartalom 47%
Légköri nyomás 1017 hPa
Látótávolság: 14.5 km
Kevés felhő 25000 lábon

METAR: CYGV 192200Z AUTO 27015G20KT 9SM FEW250 11/00 A3003 RMK SLP172

Idő: 18:54 (22:54 UTC)

Előrejelzés

A jelentés 3 órával és 16 perccel ezelõtt készült, 19:38 UTC
Az előrejelzés 19-én 20 óra UTC és 20-én 08 óra UTC között érvényes
Nyugati szél 15 kt
Látótávolság: 10 km
Kevés felhő 24000 lábon
19-én 22 óra UTC és 19-én 24 óra UTC között fokozatosan kialakuló
Északkeleti szél 8 kt
Kevés felhő 3000 lábon

TAF: CYGV 191938Z 1920/2008 26015KT P6SM FEW240 BECMG 1922/1924 04008KT FEW030 RMK FCST BASED ON AUTO OBS. NXT FCST BY 200200Z

Meteorológiai megfigyelések és előrejelzések több, mint 4000 repülőtéren (METAR és TAF jelentéseket).

A térképen piros és sárga pontok jelzik az elérhető meteorológiai állomásokat.

Mozgassa az egeret a pont fölött, hogy megjelenjen az állomás neve.

Azután kattintson az időjárási megfigyelések és előrejelzések megtekintéséhez.

A térkép megváltoztatása: kattintson a fekete keresztel jelölt zöld gombra ráközelítéshez, a vonallal jelölt zöld gombra távolításhoz, vagy a zöld nyilakra a szomszédos térképek eléréséhez.


METAR-TAF: